R.l. Enterkin — WDD9628 — position and weather

sailwx.info

Track history (hours):
 
Tides and Currents Weather Stations Pressure Air Temp Water Temp Dewpoint Dewpoint Depression Visibility Wind Speed Wind Dir Waves Ship Positions

R.l. Enterkin

Owner: Great Lakes Dredge & Dock Company, LLC., Oak Brook, IL. More information available from US FCC via Universal Licensing System and Coast Guard Vessel Documentation Center.

Last reported at 2016-May-26 16:30 UTC. Time now 2016-May-26 18:30 UTC.
Position N 39°17' W 074°33'.

MMSI: 367314080.

Date/timePositionNaut miles runAvg speedWind from/ knotsBaromVisibWave heightAir tempDewpointWater temp
2016-May-26 16:30N 39°17' W 074°33'0 0.4
2016-May-26 15:31N 39°17' W 074°32'0 0.3
2016-May-26 14:32N 39°17' W 074°33'0 0.1
2016-May-26 13:31N 39°17' W 074°33'0 0.1
2016-May-26 12:33N 39°17' W 074°33'0 0.4
2016-May-26 11:33N 39°17' W 074°32'2 1.9
2016-May-26 10:33N 39°19' W 074°32'0 0.0
2016-May-26 09:22N 39°19' W 074°32'2 0.1
2016-May-25 13:06N 39°17' W 074°33'1 1.5
2016-May-25 12:33N 39°17' W 074°32'1 1.4
2016-May-25 11:33N 39°19' W 074°32'0 0.0
2016-May-25 10:33N 39°19' W 074°32'0 0.0
2016-May-25 09:33N 39°19' W 074°32'0 0.0
2016-May-25 04:04N 39°19' W 074°32'0 0.0
2016-May-25 03:33N 39°19' W 074°32'  
2016-May-21 17:23N 39°19' W 074°32'0 0.0
2016-May-21 13:33N 39°19' W 074°32'0 0.3
2016-May-21 12:33N 39°19' W 074°32'0 0.2
2016-May-21 11:33N 39°19' W 074°32'0 0.1
2016-May-21 10:31N 39°19' W 074°32'0 0.0
2016-May-21 09:33N 39°19' W 074°32'0 0.0
2016-May-21 08:33N 39°19' W 074°32'0 0.0
2016-May-21 07:33N 39°19' W 074°32'0 0.0
2016-May-21 06:33N 39°19' W 074°32'0 0.0
2016-May-21 05:33N 39°19' W 074°32'0 0.0
2016-May-21 01:22N 39°19' W 074°32'0 0.0
2016-May-21 00:33N 39°19' W 074°32'0 0.0
2016-May-20 12:10N 39°19' W 074°32'0 0.0
2016-May-20 07:25N 39°19' W 074°32'0 0.0
2016-May-20 04:29N 39°19' W 074°32'0 0.0
2016-May-20 02:19N 39°19' W 074°32'0 0.0
2016-May-20 01:33N 39°19' W 074°32'0 0.0
2016-May-20 00:33N 39°19' W 074°32'0 0.0
2016-May-19 23:33N 39°19' W 074°32'0 0.0
2016-May-19 22:33N 39°19' W 074°32'0 0.0
2016-May-19 17:31N 39°19' W 074°32'8 0.3
2016-May-18 14:22N 39°12' W 074°38'0 0.2
2016-May-18 13:27N 39°13' W 074°38'0 0.1
2016-May-18 12:29N 39°13' W 074°38'6 4.7
2016-May-18 11:09N 39°17' W 074°32'2 2.5
2016-May-18 10:30N 39°19' W 074°32'0 0.0
2016-May-18 09:06N 39°19' W 074°32'0 0.0
2016-May-18 08:25N 39°19' W 074°32'0 0.0
2016-May-18 07:22N 39°19' W 074°32'8 0.5
2016-May-17 15:31N 39°12' W 074°39'3 0.9
2016-May-17 12:31N 39°14' W 074°36'2 1.7
2016-May-17 11:34N 39°13' W 074°37'1 0.3
2016-May-17 07:29N 39°12' W 074°38'0 0.0
2016-May-17 06:33N 39°12' W 074°38'0 0.0
2016-May-17 05:33N 39°12' W 074°38'0 0.0
2016-May-17 04:33N 39°12' W 074°38'0 0.0
2016-May-17 03:31N 39°12' W 074°38'  
Track history (hours):
 
Tides and Currents Weather Stations Pressure Air Temp Water Temp Dewpoint Dewpoint Depression Visibility Wind Speed Wind Dir Waves Ship Positions

R.l. Enterkin

Owner: Great Lakes Dredge & Dock Company, LLC., Oak Brook, IL. More information available from US FCC via Universal Licensing System and Coast Guard Vessel Documentation Center.

Last reported at 2016-May-26 16:30 UTC. Time now 2016-May-26 18:30 UTC.
Position N 39°17' W 074°33'.

MMSI: 367314080.

Date/timePositionNaut miles runAvg speedWind from/ knotsBaromVisibWave heightAir tempDewpointWater temp
2016-May-26 16:30N 39°17' W 074°33'0 0.4
2016-May-26 15:31N 39°17' W 074°32'0 0.3
2016-May-26 14:32N 39°17' W 074°33'0 0.1
2016-May-26 13:31N 39°17' W 074°33'0 0.1
2016-May-26 12:33N 39°17' W 074°33'0 0.4
2016-May-26 11:33N 39°17' W 074°32'2 1.9
2016-May-26 10:33N 39°19' W 074°32'0 0.0
2016-May-26 09:22N 39°19' W 074°32'2 0.1
2016-May-25 13:06N 39°17' W 074°33'1 1.5
2016-May-25 12:33N 39°17' W 074°32'1 1.4
2016-May-25 11:33N 39°19' W 074°32'0 0.0
2016-May-25 10:33N 39°19' W 074°32'0 0.0
2016-May-25 09:33N 39°19' W 074°32'0 0.0
2016-May-25 04:04N 39°19' W 074°32'0 0.0
2016-May-25 03:33N 39°19' W 074°32'  
2016-May-21 17:23N 39°19' W 074°32'0 0.0
2016-May-21 13:33N 39°19' W 074°32'0 0.3
2016-May-21 12:33N 39°19' W 074°32'0 0.2
2016-May-21 11:33N 39°19' W 074°32'0 0.1
2016-May-21 10:31N 39°19' W 074°32'0 0.0
2016-May-21 09:33N 39°19' W 074°32'0 0.0
2016-May-21 08:33N 39°19' W 074°32'0 0.0
2016-May-21 07:33N 39°19' W 074°32'0 0.0
2016-May-21 06:33N 39°19' W 074°32'0 0.0
2016-May-21 05:33N 39°19' W 074°32'0 0.0
2016-May-21 01:22N 39°19' W 074°32'0 0.0
2016-May-21 00:33N 39°19' W 074°32'0 0.0
2016-May-20 12:10N 39°19' W 074°32'0 0.0
2016-May-20 07:25N 39°19' W 074°32'0 0.0
2016-May-20 04:29N 39°19' W 074°32'0 0.0
2016-May-20 02:19N 39°19' W 074°32'0 0.0
2016-May-20 01:33N 39°19' W 074°32'0 0.0
2016-May-20 00:33N 39°19' W 074°32'0 0.0
2016-May-19 23:33N 39°19' W 074°32'0 0.0
2016-May-19 22:33N 39°19' W 074°32'0 0.0
2016-May-19 17:31N 39°19' W 074°32'8 0.3
2016-May-18 14:22N 39°12' W 074°38'0 0.2
2016-May-18 13:27N 39°13' W 074°38'0 0.1
2016-May-18 12:29N 39°13' W 074°38'6 4.7
2016-May-18 11:09N 39°17' W 074°32'2 2.5
2016-May-18 10:30N 39°19' W 074°32'0 0.0
2016-May-18 09:06N 39°19' W 074°32'0 0.0
2016-May-18 08:25N 39°19' W 074°32'0 0.0
2016-May-18 07:22N 39°19' W 074°32'8 0.5
2016-May-17 15:31N 39°12' W 074°39'3 0.9
2016-May-17 12:31N 39°14' W 074°36'2 1.7
2016-May-17 11:34N 39°13' W 074°37'1 0.3
2016-May-17 07:29N 39°12' W 074°38'0 0.0
2016-May-17 06:33N 39°12' W 074°38'0 0.0
2016-May-17 05:33N 39°12' W 074°38'0 0.0
2016-May-17 04:33N 39°12' W 074°38'0 0.0
2016-May-17 03:31N 39°12' W 074°38'  

Dump ship's entire track history